• Join FlightAware (Why Join?)
  • Login
  • US Flag 
07:34PM EDT


 

Airport Tracker/Info


-or-


 

Live Flight TrackerFlight Track Log ✈ ASQ5958 ✈ 05-May-2013 ✈ KORD - KTYS

Flight Track Log - Related Links

Times and Time Zones

All times are in EDT time to prevent confusion due to time zone crossing. See the ASQ5958 flight status page for this flight to view local times or setup timezone preferences in your user account.

Time Position Orientation Groundspeed Altitude Reporting Facility
EDT Latitude Longitude Course Direction KTS MPH feet Rate Location/Type
06:30PM 41.9364 -87.8075 173° South 191 220 4,800  Level Chicago Center
06:30PM 41.9000 -87.8000 171° South 230 265 5,700 1,980 Climbing Chicago TRACON
06:31PM 41.8333 -87.8500 209° Southwest 277 319 7,700 1,860 Climbing Chicago TRACON
06:32PM 41.8067 -87.8761 216° Southwest 269 310 8,800 1,860 Climbing Chicago Center
06:33PM 41.7422 -87.8425 159° South 267 307 10,800 1,800 Climbing Chicago Center
06:34PM 41.6753 -87.7842 147° Southeast 284 327 12,600 1,740 Climbing Chicago Center
06:35PM 41.4558 -87.5416 159° South  Level Estimated
06:35PM 41.6072 -87.7258 147° Southeast 290 334 14,400  Level Chicago Center
06:36PM 41.3681 -87.4813 173° South  Level Estimated
06:37PM 41.5001 -87.6133 156° South  Level FlightAware Approximate
06:37PM 41.4369 -87.5822 156° South 335 386 16,300  Level Chicago Center
06:38PM 41.3358 -87.5569 169° South 371 427 17,200 900 Climbing Chicago Center
06:39PM 41.2319 -87.5392 173° South 374 430 18,200 960 Climbing Chicago Center
06:40PM 41.1267 -87.5142 170° South 383 441 19,200 960 Climbing Chicago Center
06:41PM 41.0225 -87.4844 168° South 383 441 20,200 1,020 Climbing Chicago Center
06:42PM 40.8919 -87.4492 168° South 395 455 21,400 1,020 Climbing Chicago Center
06:43PM 40.7844 -87.4194 168° South 396 456 22,400 900 Climbing Chicago Center
06:45PM 40.6742 -87.3922 169° South 402 463 23,400 960 Climbing Chicago Center
06:46PM 40.5733 -87.3436 160° South 396 456 24,500 1,020 Climbing Chicago Center
06:47PM 40.4831 -87.2692 148° Southeast 388 447 25,500 1,200 Climbing Chicago Center
06:48PM 40.3778 -87.1883 150° Southeast 381 438 27,000 1,320 Climbing Chicago Center
06:49PM 40.2917 -87.1200 149° Southeast 368 423 28,300 1,200 Climbing Chicago Center
06:50PM 40.2058 -87.0528 149° Southeast 362 417 29,600 1,200 Climbing Chicago Center
06:51PM 40.1225 -86.9856 148° Southeast 356 410 30,900 720 Climbing Chicago Center
06:51PM 40.0528 -86.9314 149° Southeast 359 413 31,000  Climbing Indianapolis Center
06:52PM 39.9611 -86.8592 149° Southeast 382 440 31,000  Level Indianapolis Center
06:54PM 39.8642 -86.7842 149° Southeast 402 463 31,000  Level Indianapolis Center
06:55PM 39.7483 -86.6936 149° Southeast 408 470 31,000  Level Indianapolis Center
06:56PM 39.6528 -86.6206 150° Southeast 405 466 31,000  Level Indianapolis Center
06:57PM 39.5569 -86.5464 149° Southeast 408 470 31,000  Level Indianapolis Center
06:58PM 39.4608 -86.4725 149° Southeast 408 470 31,000  Level Indianapolis Center
06:59PM 39.3453 -86.3844 149° Southeast 407 468 31,000  Level Indianapolis Center
07:00PM 39.2492 -86.3106 149° Southeast 406 467 31,000  Level Indianapolis Center
07:02PM 39.0561 -86.1650 150° Southeast 402 463 31,000  Level Indianapolis Center
07:03PM 38.9608 -86.0925 149° Southeast 401 461 31,000  Level Indianapolis Center
07:04PM 38.8633 -86.0178 149° Southeast 400 460 31,000  Level Indianapolis Center
07:06PM 38.6558 -85.8636 150° Southeast 398 458 31,000  Level Indianapolis Center
07:07PM 38.5569 -85.7892 150° Southeast 392 451 31,000  Level Indianapolis Center
07:08PM 38.4625 -85.7192 150° Southeast 389 448 31,000  Level Indianapolis Center
07:10PM 38.3346 -85.6186 148° Southeast  Level FlightAware Approximate
07:10PM 38.2761 -85.5811 148° Southeast 382 440 31,000  Level Indianapolis Center
07:11PM 38.1833 -85.5131 150° Southeast 381 438 31,000  Level Indianapolis Center
07:12PM 38.0908 -85.4447 150° Southeast 381 438 31,000  Level Indianapolis Center
07:13PM 37.9978 -85.3769 150° Southeast 383 441 31,000  Level Indianapolis Center
07:14PM 37.9050 -85.3097 150° Southeast 383 441 31,000  Level Indianapolis Center
07:15PM 37.7964 -85.2292 150° Southeast 380 437 31,000  Level Indianapolis Center
07:17PM 37.6949 -85.1281 142° Southeast  Level FlightAware Approximate
07:17PM 37.6094 -85.0944 142° Southeast 386 444 31,000  Level Indianapolis Center
07:18PM 37.5153 -85.0269 150° Southeast 387 445 30,100 -1,260 Descending Indianapolis Center
07:19PM 37.4208 -84.9589 150° Southeast 390 449 28,500 -1,740 Descending Indianapolis Center
07:20PM 37.3125 -84.8794 150° Southeast 387 445 26,600 -1,740 Descending Indianapolis Center
07:21PM 37.2169 -84.8117 151° Southeast 391 450 25,000 -1,560 Descending Indianapolis Center
07:22PM 37.1214 -84.7442 151° Southeast 393 452 23,400 -1,560 Descending Indianapolis Center
07:23PM 37.0353 -84.6825 150° Southeast 378 435 21,800 -1,860 Descending Indianapolis Center
07:24PM 36.9536 -84.6258 151° Southeast 342 394 19,600 -2,100 Descending Indianapolis Center
07:25PM 36.8758 -84.5697 150° Southeast 324 373 17,500 -2,040 Descending Indianapolis Center
07:27PM 36.7742 -84.4989 151° Southeast 342 394 15,400 -1,620 Descending Indianapolis Center
07:28PM 36.6925 -84.4414 151° Southeast 339 390 14,200 -1,080 Descending Indianapolis Center
07:29PM 36.6128 -84.3856 151° Southeast 330 380 13,200 -1,020 Descending Indianapolis Center
07:30PM 36.5350 -84.3303 150° Southeast 324 373 12,200 -1,080 Descending Indianapolis Center
07:31PM 36.4533 -84.2747 151° Southeast 330 380 11,100 -600 Descending Indianapolis Center
07:32PM 36.3808 -84.2236 150° Southeast 305 351 11,000 -60 Descending Indianapolis Center
07:32PM 36.3231 -84.1856 152° Southeast 306 352 11,000 -180 Level Atlanta Center
07:33PM 36.2500 -84.1367 152° Southeast 299 344 10,700 -900 Descending Atlanta Center
07:34PM 36.1833 -84.1236 171° South 278 320 9,200 -1,680 Descending Atlanta Center
07:35PM 36.1167 -84.1389 190° South 249 287 7,400 -1,800 Descending Atlanta Center
07:36PM 36.0583 -84.1236 168° South 235 270 5,600 -1,680 Descending Atlanta Center
07:37PM 35.9958 -84.1056 167° South 222 255 4,100 -780 Descending Atlanta Center
07:38PM 35.9331 -84.1081 182° South 227 261 4,100 -60 Level Atlanta Center
07:39PM 35.8767 -84.1489 210° Southwest 227 261 4,000 -180 Descending Atlanta Center
07:40PM 35.8225 -84.1872 210° Southwest 232 267 3,800 -240 Descending Atlanta Center
07:42PM 35.8151 -84.0633 153° Southeast  Level Estimated
07:49PM 35.8110 -83.9940 153° Southeast  Level Estimated
07:50PM 35.8110 -83.9940 153° Southeast  Level Estimated
07:51PM 35.8110 -83.9940 153° Southeast  Level Estimated
07:52PM 35.8110 -83.9940 153° Southeast  Level Estimated